createdAt,value
2022-12-17T00:00:38.455Z,68.02
2022-12-17T00:01:38.277Z,67.08
2022-12-17T00:02:38.275Z,67.81
2022-12-17T00:03:38.729Z,67.76
2022-12-17T00:04:38.192Z,69.82
2022-12-17T00:05:38.181Z,68.73
2022-12-17T00:06:38.189Z,68.40
2022-12-17T00:07:38.140Z,70.50
2022-12-17T00:08:38.143Z,68.62
2022-12-17T00:09:38.094Z,66.97
2022-12-17T00:10:38.090Z,70.06
2022-12-17T00:11:38.100Z,68.40
2022-12-17T00:12:38.160Z,69.31
2022-12-17T00:13:38.461Z,69.15
2022-12-17T00:14:38.030Z,68.67
2022-12-17T00:15:38.007Z,68.09
2022-12-17T00:16:38.106Z,67.68
2022-12-17T00:17:38.045Z,67.12
2022-12-17T00:18:37.952Z,69.26
2022-12-17T00:19:37.951Z,67.59
2022-12-17T00:20:37.928Z,68.14
2022-12-17T00:21:37.981Z,67.03
2022-12-17T00:22:37.902Z,68.09
2022-12-17T00:23:38.356Z,68.18
2022-12-17T00:24:37.859Z,68.96
2022-12-17T00:25:38.832Z,68.43
2022-12-17T00:26:40.042Z,67.72
2022-12-17T00:27:37.855Z,67.74
2022-12-17T00:28:37.787Z,66.14
2022-12-17T00:29:38.765Z,67.83
2022-12-17T00:30:37.754Z,68.63
2022-12-17T00:31:37.834Z,67.75
2022-12-17T00:32:37.712Z,67.47
2022-12-17T00:33:37.957Z,67.87
2022-12-17T00:34:37.677Z,69.30
2022-12-17T00:35:37.669Z,70.12
2022-12-17T00:36:37.678Z,68.68
2022-12-17T00:37:37.662Z,70.58
2022-12-17T00:38:37.616Z,68.00
2022-12-17T00:39:37.657Z,68.41
2022-12-17T00:40:37.599Z,70.58
2022-12-17T00:41:37.613Z,67.84
2022-12-17T00:42:37.566Z,68.37
2022-12-17T00:43:37.879Z,70.41
2022-12-17T00:44:37.517Z,68.65
2022-12-17T00:45:37.498Z,68.45
2022-12-17T00:46:37.546Z,68.89
2022-12-17T00:47:37.524Z,67.50
2022-12-17T00:48:37.762Z,69.39
2022-12-17T00:49:37.450Z,69.23
2022-12-17T00:50:37.408Z,69.01
2022-12-17T00:52:05.039Z,69.31
2022-12-17T00:52:37.364Z,67.38
2022-12-17T00:53:37.860Z,65.68
2022-12-17T00:54:37.347Z,68.15
2022-12-17T00:55:37.328Z,69.33
2022-12-17T00:56:37.311Z,67.99
2022-12-17T00:57:37.347Z,67.89
2022-12-17T00:58:37.274Z,70.13
2022-12-17T00:59:37.261Z,70.37
2022-12-17T01:00:37.323Z,68.93
2022-12-17T01:01:37.370Z,67.29
2022-12-17T01:02:37.313Z,67.13
2022-12-17T01:03:37.564Z,65.71
2022-12-17T01:04:37.168Z,65.81
2022-12-17T01:05:37.150Z,67.26
2022-12-17T01:06:37.134Z,67.24
2022-12-17T01:07:37.144Z,63.66
2022-12-17T01:08:37.095Z,66.07
2022-12-17T01:09:37.087Z,71.13
2022-12-17T01:10:37.056Z,68.09
2022-12-17T01:11:37.043Z,69.11
2022-12-17T01:12:37.050Z,69.89
2022-12-17T01:13:37.383Z,70.46
2022-12-17T01:14:36.988Z,69.53
2022-12-17T01:15:36.968Z,68.75
2022-12-17T01:16:37.043Z,68.99
2022-12-17T01:17:36.980Z,67.30
2022-12-17T01:18:36.929Z,68.46
2022-12-17T01:19:36.908Z,68.84
2022-12-17T01:20:36.894Z,68.74
2022-12-17T01:21:37.880Z,65.88
2022-12-17T01:22:36.877Z,67.27
2022-12-17T01:23:37.166Z,65.03
2022-12-17T01:24:36.820Z,66.11
2022-12-17T01:25:36.794Z,68.43
2022-12-17T01:26:36.778Z,69.86
2022-12-17T01:27:36.798Z,68.27
2022-12-17T01:28:36.757Z,66.62
2022-12-17T01:29:36.723Z,67.97
2022-12-17T01:30:36.714Z,67.56
2022-12-17T01:31:36.744Z,67.92
2022-12-17T01:32:36.731Z,69.14
2022-12-17T01:33:37.107Z,67.96
2022-12-17T01:34:36.706Z,67.03
2022-12-17T01:35:36.779Z,67.31
2022-12-17T01:36:36.602Z,70.64
2022-12-17T01:37:36.659Z,67.62
2022-12-17T01:38:36.575Z,67.41
2022-12-17T01:39:36.573Z,67.51
2022-12-17T01:40:36.540Z,68.55
2022-12-17T01:41:36.532Z,66.59
2022-12-17T01:42:36.534Z,66.75
2022-12-17T01:43:36.801Z,67.78
2022-12-17T01:44:36.470Z,67.84
2022-12-17T01:45:36.512Z,67.03
2022-12-17T01:46:36.440Z,68.36
2022-12-17T01:47:36.471Z,70.99
2022-12-17T01:48:36.403Z,68.47
2022-12-17T01:49:36.395Z,68.09
2022-12-17T01:50:36.388Z,66.05
2022-12-17T01:51:36.351Z,68.05
2022-12-17T01:52:36.368Z,68.31
2022-12-17T01:53:36.722Z,66.96
2022-12-17T01:54:36.319Z,70.22
2022-12-17T01:55:36.287Z,67.73
2022-12-17T01:56:36.314Z,69.11
2022-12-17T01:57:36.280Z,69.82
2022-12-17T01:58:36.255Z,67.92
2022-12-17T01:59:36.237Z,68.33
2022-12-17T02:00:36.287Z,70.53
2022-12-17T02:01:36.460Z,70.39
2022-12-17T02:02:36.314Z,67.52
2022-12-17T02:03:36.551Z,68.28
2022-12-17T02:04:36.140Z,70.45
2022-12-17T02:05:36.131Z,70.59
2022-12-17T02:06:36.104Z,70.45
2022-12-17T02:07:36.185Z,69.39
2022-12-17T02:08:36.068Z,67.58
2022-12-17T02:09:36.056Z,68.27
2022-12-17T02:10:36.030Z,66.94
2022-12-17T02:11:36.019Z,68.23
2022-12-17T02:12:36.030Z,68.54
2022-12-17T02:13:37.272Z,71.12
2022-12-17T02:14:35.984Z,70.50
2022-12-17T02:15:35.945Z,68.27
2022-12-17T02:16:35.988Z,69.27
2022-12-17T02:17:35.964Z,69.87
2022-12-17T02:18:35.913Z,69.99
2022-12-17T02:19:35.880Z,67.51
2022-12-17T02:20:35.861Z,69.55
2022-12-17T02:21:35.845Z,71.66
2022-12-17T02:22:35.834Z,69.57
2022-12-17T02:23:36.276Z,69.17
2022-12-17T02:24:35.803Z,69.44
2022-12-17T02:25:35.779Z,69.43
2022-12-17T02:26:35.763Z,70.63
2022-12-17T02:27:35.774Z,68.42
2022-12-17T02:28:35.774Z,69.98
2022-12-17T02:29:35.709Z,69.60
2022-12-17T02:30:35.689Z,68.41
2022-12-17T02:31:35.776Z,68.66
2022-12-17T02:32:35.655Z,68.41
2022-12-17T02:33:36.099Z,67.20
2022-12-17T02:34:35.622Z,68.29
2022-12-17T02:35:35.597Z,66.10
2022-12-17T02:36:35.585Z,69.78
2022-12-17T02:37:35.565Z,70.29
2022-12-17T02:38:35.591Z,68.36
2022-12-17T02:39:35.547Z,67.31
2022-12-17T02:40:35.508Z,68.20
2022-12-17T02:41:36.504Z,67.93
2022-12-17T02:42:35.482Z,70.51
2022-12-17T02:43:35.734Z,71.22
2022-12-17T02:44:35.440Z,71.33
2022-12-17T02:45:35.483Z,70.20
2022-12-17T02:46:35.417Z,70.04
2022-12-17T02:47:35.395Z,69.55
2022-12-17T02:48:35.407Z,66.50
2022-12-17T02:49:35.360Z,65.72
2022-12-17T02:50:35.348Z,68.42
2022-12-17T02:51:35.335Z,68.35
2022-12-17T02:52:35.338Z,69.47
2022-12-17T02:53:35.688Z,69.17
2022-12-17T02:54:35.267Z,66.95
2022-12-17T02:55:35.249Z,68.19
2022-12-17T02:56:36.230Z,69.29
2022-12-17T02:57:35.227Z,69.30
2022-12-17T02:58:35.238Z,69.16
2022-12-17T02:59:35.198Z,67.89
2022-12-17T03:00:35.173Z,69.49
2022-12-17T03:01:35.434Z,68.38
2022-12-17T03:02:35.246Z,69.63
2022-12-17T03:03:35.480Z,69.23
2022-12-17T03:04:35.105Z,67.37
2022-12-17T03:05:45.171Z,70.15
2022-12-17T03:06:37.063Z,66.82
2022-12-17T03:07:35.049Z,70.71
2022-12-17T03:08:35.058Z,68.42
2022-12-17T03:09:35.019Z,68.00
2022-12-17T03:10:34.995Z,68.17
2022-12-17T03:11:34.970Z,68.72
2022-12-17T03:12:34.957Z,64.87
2022-12-17T03:13:35.366Z,69.34
2022-12-17T03:14:34.918Z,67.96
2022-12-17T03:15:34.902Z,65.94
2022-12-17T03:16:37.719Z,69.16
2022-12-17T03:17:35.879Z,69.59
2022-12-17T03:18:34.877Z,68.25
2022-12-17T03:19:34.827Z,70.36
2022-12-17T03:20:34.840Z,67.18
2022-12-17T03:21:34.807Z,68.24
2022-12-17T03:22:34.774Z,68.22
2022-12-17T03:23:35.202Z,67.44
2022-12-17T03:24:34.743Z,68.18
2022-12-17T03:25:34.747Z,68.68
2022-12-17T03:26:34.720Z,68.07
2022-12-17T03:27:34.709Z,67.61
2022-12-17T03:28:34.710Z,68.17
2022-12-17T03:29:34.673Z,68.58
2022-12-17T03:30:36.353Z,69.02
2022-12-17T03:31:35.689Z,68.22
2022-12-17T03:32:34.649Z,68.87
2022-12-17T03:33:35.181Z,69.61
2022-12-17T03:34:34.579Z,68.52
2022-12-17T03:35:34.557Z,67.62
2022-12-17T03:36:34.552Z,68.57
2022-12-17T03:37:34.540Z,69.53
2022-12-17T03:38:34.538Z,67.79
2022-12-17T03:39:34.488Z,66.29
2022-12-17T03:40:34.523Z,66.88
2022-12-17T03:41:34.460Z,65.59
2022-12-17T03:42:34.447Z,69.16
2022-12-17T03:43:34.828Z,67.41
2022-12-17T03:44:34.415Z,67.94
2022-12-17T03:45:34.391Z,69.66
2022-12-17T03:46:34.469Z,67.44
2022-12-17T03:47:34.361Z,69.39
2022-12-17T03:48:34.395Z,67.58
2022-12-17T03:49:34.323Z,69.64
2022-12-17T03:50:34.320Z,67.08
2022-12-17T03:51:34.295Z,67.41
2022-12-17T03:52:34.269Z,69.65
2022-12-17T03:53:34.617Z,65.20
2022-12-17T03:54:34.276Z,66.88
2022-12-17T03:55:34.231Z,69.30
2022-12-17T03:56:34.209Z,70.82
2022-12-17T03:57:34.196Z,69.78
2022-12-17T03:58:34.202Z,69.38
2022-12-17T03:59:34.193Z,70.21
2022-12-17T04:00:34.138Z,69.53
2022-12-17T04:01:34.213Z,67.75
2022-12-17T04:02:34.214Z,68.41
2022-12-17T04:03:34.537Z,67.96
2022-12-17T04:04:34.097Z,70.25
2022-12-17T04:05:34.047Z,70.00
2022-12-17T04:06:34.055Z,67.92
2022-12-17T04:07:34.015Z,68.53
2022-12-17T04:08:34.009Z,68.47
2022-12-17T04:09:34.018Z,65.45
2022-12-17T04:10:33.978Z,68.47
2022-12-17T04:11:34.007Z,69.19
2022-12-17T04:12:33.936Z,70.15
2022-12-17T04:13:40.251Z,68.65
2022-12-17T04:14:35.939Z,68.32
2022-12-17T04:15:33.931Z,67.94
2022-12-17T04:16:33.865Z,67.72
2022-12-17T04:17:33.871Z,68.60
2022-12-17T04:18:33.834Z,68.87
2022-12-17T04:19:33.849Z,68.60
2022-12-17T04:20:33.810Z,68.78
2022-12-17T04:21:33.804Z,70.90
2022-12-17T04:22:33.763Z,68.67
2022-12-17T04:23:34.096Z,69.68
2022-12-17T04:24:33.769Z,70.79
2022-12-17T04:25:33.720Z,68.72
2022-12-17T04:26:33.717Z,67.70
2022-12-17T04:27:33.681Z,68.99
2022-12-17T04:28:33.663Z,67.45
2022-12-17T04:29:33.685Z,71.80
2022-12-17T04:30:33.628Z,69.73
2022-12-17T04:31:33.710Z,68.68
2022-12-17T04:32:35.418Z,70.90
2022-12-17T04:33:34.848Z,70.52
2022-12-17T04:34:33.595Z,71.34
2022-12-17T04:35:33.549Z,71.29
2022-12-17T04:36:33.543Z,69.71
2022-12-17T04:37:33.510Z,71.97
2022-12-17T04:38:33.499Z,72.58
2022-12-17T04:39:33.514Z,71.36
2022-12-17T04:40:33.458Z,70.43
2022-12-17T04:41:33.431Z,70.44
2022-12-17T04:42:34.418Z,69.08
2022-12-17T04:43:33.911Z,70.13
2022-12-17T04:44:33.424Z,69.31
2022-12-17T04:45:33.368Z,69.98
2022-12-17T04:46:33.498Z,70.16
2022-12-17T04:47:33.338Z,69.35
2022-12-17T04:48:33.321Z,69.18
2022-12-17T04:49:33.330Z,68.69
2022-12-17T04:50:33.284Z,68.07
2022-12-17T04:51:33.271Z,67.59
2022-12-17T04:52:33.256Z,68.65
2022-12-17T04:53:33.578Z,68.31
2022-12-17T04:54:33.253Z,69.29
2022-12-17T04:55:33.209Z,69.48
2022-12-17T04:56:33.188Z,69.71
2022-12-17T04:57:33.182Z,68.37
2022-12-17T04:58:33.145Z,69.91
2022-12-17T04:59:33.168Z,69.27
2022-12-17T05:00:33.115Z,69.90
2022-12-17T05:01:33.181Z,70.98
2022-12-17T05:02:35.984Z,69.39
2022-12-17T05:03:34.528Z,69.43
2022-12-17T05:04:33.083Z,68.12
2022-12-17T05:05:33.052Z,69.30
2022-12-17T05:06:33.031Z,69.60
2022-12-17T05:07:33.002Z,70.94
2022-12-17T05:08:36.888Z,68.84
2022-12-17T05:09:34.999Z,70.39
2022-12-17T05:10:32.953Z,70.99
2022-12-17T05:11:32.958Z,70.03
2022-12-17T05:12:32.934Z,69.65
2022-12-17T05:13:33.123Z,69.74
2022-12-17T05:14:32.911Z,69.18
2022-12-17T05:15:32.917Z,68.91
2022-12-17T05:16:32.961Z,69.96
2022-12-17T05:17:32.916Z,69.63
2022-12-17T05:18:32.817Z,71.25
2022-12-17T05:19:32.830Z,71.42
2022-12-17T05:20:32.794Z,71.02
2022-12-17T05:21:33.600Z,69.51
2022-12-17T05:22:33.759Z,71.25
2022-12-17T05:23:32.960Z,70.34
2022-12-17T05:24:32.765Z,69.52
2022-12-17T05:25:32.704Z,69.08
2022-12-17T05:26:32.681Z,71.10
2022-12-17T05:27:32.674Z,71.80
2022-12-17T05:28:32.648Z,70.76
2022-12-17T05:29:32.679Z,69.71
2022-12-17T05:30:32.623Z,67.30
2022-12-17T05:31:32.651Z,67.86
2022-12-17T05:32:32.600Z,72.06
2022-12-17T05:33:32.684Z,72.31
2022-12-17T05:34:32.574Z,71.65
2022-12-17T05:35:32.526Z,71.83
2022-12-17T05:36:32.521Z,71.05
2022-12-17T05:37:32.503Z,70.31
2022-12-17T05:38:32.489Z,68.45
2022-12-17T05:39:32.496Z,69.61
2022-12-17T05:40:32.454Z,70.29
2022-12-17T05:41:32.427Z,70.39
2022-12-17T05:42:32.408Z,69.46
2022-12-17T05:43:32.408Z,69.10
2022-12-17T05:44:32.415Z,67.64
2022-12-17T05:45:32.375Z,69.24
2022-12-17T05:46:32.382Z,69.66
2022-12-17T05:47:32.341Z,70.21
2022-12-17T05:48:32.311Z,69.62
2022-12-17T05:49:32.321Z,70.25
2022-12-17T05:50:32.275Z,67.38
2022-12-17T05:51:37.084Z,68.83
2022-12-17T05:52:34.246Z,69.93
2022-12-17T05:53:32.317Z,69.19
2022-12-17T05:54:32.254Z,70.91
2022-12-17T05:55:32.193Z,71.15
2022-12-17T05:56:32.172Z,70.93
2022-12-17T05:57:32.156Z,71.87
2022-12-17T05:58:32.137Z,71.79
2022-12-17T05:59:32.158Z,71.10
2022-12-17T06:00:32.128Z,70.80
2022-12-17T06:01:32.129Z,72.34
2022-12-17T06:02:32.126Z,71.04
2022-12-17T06:03:32.148Z,71.01
2022-12-17T06:04:32.062Z,72.04
2022-12-17T06:05:32.036Z,72.96
2022-12-17T06:06:32.007Z,70.45
2022-12-17T06:07:31.976Z,70.70
2022-12-17T06:08:31.974Z,69.69
2022-12-17T06:09:31.979Z,70.28
2022-12-17T06:10:31.938Z,68.00
2022-12-17T06:11:31.924Z,67.73
2022-12-17T06:12:31.900Z,71.57
2022-12-17T06:13:31.928Z,69.88
2022-12-17T06:14:31.885Z,69.75
2022-12-17T06:15:31.834Z,68.16
2022-12-17T06:16:31.877Z,68.06
2022-12-17T06:17:31.809Z,69.72
2022-12-17T06:18:31.793Z,70.83
2022-12-17T06:19:31.800Z,70.66
2022-12-17T06:20:31.753Z,70.88
2022-12-17T06:21:31.741Z,68.52
2022-12-17T06:22:31.718Z,68.95
2022-12-17T06:23:31.711Z,70.03
2022-12-17T06:24:31.726Z,69.99
2022-12-17T06:25:31.683Z,69.61
2022-12-17T06:26:31.665Z,71.58
2022-12-17T06:27:31.647Z,69.74
2022-12-17T06:28:31.618Z,70.10
2022-12-17T06:29:31.634Z,70.18
2022-12-17T06:30:31.582Z,71.09
2022-12-17T06:31:31.642Z,69.98
2022-12-17T06:32:31.548Z,71.40
2022-12-17T06:33:31.534Z,70.46
2022-12-17T06:34:31.557Z,71.36
2022-12-17T06:35:31.506Z,69.70
2022-12-17T06:36:31.479Z,68.81
2022-12-17T06:37:31.463Z,69.33
2022-12-17T06:38:31.459Z,68.91
2022-12-17T06:39:31.475Z,70.02
2022-12-17T06:40:31.429Z,69.85
2022-12-17T06:41:31.397Z,69.57
2022-12-17T06:42:31.391Z,68.97
2022-12-17T06:43:31.357Z,70.36
2022-12-17T06:44:31.375Z,70.75
2022-12-17T06:45:31.327Z,71.32
2022-12-17T06:46:31.339Z,69.23
2022-12-17T06:47:31.291Z,70.54
2022-12-17T06:48:31.280Z,70.39
2022-12-17T06:49:31.284Z,70.11
2022-12-17T06:50:31.248Z,72.56
2022-12-17T06:51:33.981Z,70.83
2022-12-17T06:52:31.222Z,71.24
2022-12-17T06:53:31.215Z,71.26
2022-12-17T06:54:31.214Z,71.45
2022-12-17T06:55:31.154Z,73.84
2022-12-17T06:56:31.152Z,71.54
2022-12-17T06:57:31.127Z,72.24
2022-12-17T06:58:31.121Z,72.16
2022-12-17T06:59:31.101Z,72.55
2022-12-17T07:00:31.306Z,70.90
2022-12-17T07:01:31.240Z,70.24
2022-12-17T07:02:31.172Z,70.46
2022-12-17T07:03:31.102Z,71.82
2022-12-17T07:04:31.010Z,72.15
2022-12-17T07:05:31.006Z,70.73
2022-12-17T07:06:30.971Z,70.43
2022-12-17T07:07:30.988Z,72.06
2022-12-17T07:08:30.931Z,72.14
2022-12-17T07:09:30.914Z,73.66
2022-12-17T07:10:30.928Z,71.76
2022-12-17T07:11:31.005Z,71.94
2022-12-17T07:12:30.862Z,72.68
2022-12-17T07:13:30.847Z,68.82
2022-12-17T07:14:30.831Z,71.34
2022-12-17T07:15:30.867Z,70.82
2022-12-17T07:16:30.877Z,73.10
2022-12-17T07:17:30.790Z,72.92
2022-12-17T07:18:30.769Z,72.61
2022-12-17T07:19:30.744Z,71.18
2022-12-17T07:20:30.834Z,71.87
2022-12-17T07:21:30.716Z,71.77
2022-12-17T07:22:30.696Z,70.90
2022-12-17T07:23:30.695Z,72.40
2022-12-17T07:24:30.672Z,72.03
2022-12-17T07:25:30.687Z,72.74
2022-12-17T07:26:30.623Z,71.91
2022-12-17T07:27:30.596Z,73.62
2022-12-17T07:28:30.589Z,72.37
2022-12-17T07:29:30.596Z,71.41
2022-12-17T07:30:30.597Z,71.85
2022-12-17T07:31:30.598Z,73.21
2022-12-17T07:32:30.519Z,72.62
2022-12-17T07:33:30.526Z,71.41
2022-12-17T07:34:30.486Z,72.45
2022-12-17T07:35:30.500Z,71.03
2022-12-17T07:36:30.443Z,71.51
2022-12-17T07:37:30.483Z,72.65
2022-12-17T07:38:30.421Z,72.47
2022-12-17T07:39:30.410Z,71.63
2022-12-17T07:40:30.412Z,72.04
2022-12-17T07:41:30.368Z,73.23
2022-12-17T07:42:30.427Z,71.97
2022-12-17T07:43:30.327Z,71.25
2022-12-17T07:44:30.330Z,71.37
2022-12-17T07:45:30.390Z,73.01
2022-12-17T07:46:30.274Z,72.23
2022-12-17T07:47:30.259Z,72.12
2022-12-17T07:48:30.234Z,71.22
2022-12-17T07:49:30.226Z,71.56
2022-12-17T07:50:30.243Z,70.94
2022-12-17T07:51:30.194Z,72.92
2022-12-17T07:52:30.164Z,72.57
2022-12-17T07:53:30.144Z,72.05
2022-12-17T07:54:30.146Z,70.55
2022-12-17T07:55:30.159Z,71.17
2022-12-17T07:56:30.137Z,70.89
2022-12-17T07:57:30.090Z,71.25
2022-12-17T07:58:30.144Z,71.70
2022-12-17T07:59:30.048Z,72.30
2022-12-17T08:00:30.057Z,71.92
2022-12-17T08:01:30.146Z,70.21
2022-12-17T08:02:30.158Z,69.46
2022-12-17T08:03:30.042Z,71.44
2022-12-17T08:04:29.977Z,72.22
2022-12-17T08:05:30.988Z,70.75
2022-12-17T08:06:29.938Z,71.94
2022-12-17T08:07:29.906Z,72.73
2022-12-17T08:08:29.905Z,70.05
2022-12-17T08:09:29.875Z,70.23
2022-12-17T08:10:29.931Z,70.94
2022-12-17T08:11:29.869Z,68.61
2022-12-17T08:12:29.829Z,70.86
2022-12-17T08:13:29.851Z,72.04
2022-12-17T08:14:29.790Z,71.33
2022-12-17T08:15:29.807Z,72.16
2022-12-17T08:16:29.824Z,70.60
2022-12-17T08:17:29.772Z,72.05
2022-12-17T08:18:29.753Z,71.16
2022-12-17T08:19:29.708Z,71.70
2022-12-17T08:20:29.731Z,71.82
2022-12-17T08:21:29.694Z,71.43
2022-12-17T08:22:29.670Z,71.84
2022-12-17T08:23:29.642Z,72.22
2022-12-17T08:24:29.637Z,71.51
2022-12-17T08:25:29.644Z,71.54
2022-12-17T08:26:29.632Z,71.66
2022-12-17T08:27:29.587Z,72.02
2022-12-17T08:29:31.564Z,71.66
2022-12-17T08:30:29.628Z,71.51
2022-12-17T08:31:29.549Z,71.97
2022-12-17T08:32:29.496Z,72.99
2022-12-17T08:33:29.470Z,71.72
2022-12-17T08:34:29.458Z,71.12
2022-12-17T08:35:29.471Z,69.56
2022-12-17T08:36:29.415Z,71.62
2022-12-17T08:37:29.400Z,72.37
2022-12-17T08:38:29.404Z,70.56
2022-12-17T08:39:29.389Z,68.56
2022-12-17T08:40:29.392Z,71.09
2022-12-17T08:41:29.343Z,72.03
2022-12-17T08:42:29.384Z,71.51
2022-12-17T08:43:29.327Z,70.82
2022-12-17T08:44:29.288Z,70.62
2022-12-17T08:45:29.320Z,70.00
2022-12-17T08:46:29.317Z,68.81
2022-12-17T08:47:29.241Z,69.41
2022-12-17T08:48:29.227Z,69.66
2022-12-17T08:49:29.217Z,69.90
2022-12-17T08:50:29.227Z,70.80
2022-12-17T08:51:29.183Z,71.44
2022-12-17T08:52:29.219Z,70.86
2022-12-17T08:53:34.563Z,71.49
2022-12-17T08:54:31.128Z,70.85
2022-12-17T08:55:29.144Z,70.52
2022-12-17T08:56:29.107Z,70.56
2022-12-17T08:57:32.537Z,71.45
2022-12-17T08:58:30.055Z,71.87
2022-12-17T08:59:29.064Z,70.38
2022-12-17T09:00:29.071Z,70.93
2022-12-17T09:01:29.072Z,71.32
2022-12-17T09:02:29.271Z,69.35
2022-12-17T09:03:29.009Z,71.21
2022-12-17T09:04:29.992Z,70.51
2022-12-17T09:05:28.958Z,69.05
2022-12-17T09:06:28.914Z,71.29
2022-12-17T09:07:28.922Z,70.19
2022-12-17T09:08:28.881Z,70.38
2022-12-17T09:09:28.897Z,69.42
2022-12-17T09:10:28.896Z,69.63
2022-12-17T09:11:28.846Z,71.27
2022-12-17T09:12:28.816Z,70.72
2022-12-17T09:13:28.803Z,70.65
2022-12-17T09:14:28.783Z,70.58
2022-12-17T09:15:28.845Z,69.91
2022-12-17T09:16:28.828Z,70.82
2022-12-17T09:17:28.769Z,69.93
2022-12-17T09:18:28.719Z,70.36
2022-12-17T09:19:28.694Z,71.04
2022-12-17T09:20:29.633Z,70.25
2022-12-17T09:21:29.674Z,70.60
2022-12-17T09:22:28.673Z,71.30
2022-12-17T09:23:28.634Z,69.21
2022-12-17T09:24:28.618Z,70.78
2022-12-17T09:25:28.636Z,71.51
2022-12-17T09:26:28.599Z,70.18
2022-12-17T09:27:28.579Z,70.30
2022-12-17T09:28:28.550Z,72.29
2022-12-17T09:29:28.527Z,70.50
2022-12-17T09:30:28.608Z,69.59
2022-12-17T09:31:32.415Z,70.44
2022-12-17T09:32:30.493Z,71.15
2022-12-17T09:33:28.493Z,70.15
2022-12-17T09:34:28.454Z,71.48
2022-12-17T09:35:28.458Z,70.30
2022-12-17T09:36:28.415Z,70.28
2022-12-17T09:37:28.405Z,71.46
2022-12-17T09:38:28.376Z,71.61
2022-12-17T09:39:28.365Z,71.67
2022-12-17T09:40:29.395Z,71.10
2022-12-17T09:41:28.332Z,70.40
2022-12-17T09:42:28.315Z,69.32
2022-12-17T09:43:28.335Z,69.33
2022-12-17T09:44:28.276Z,69.24
2022-12-17T09:45:28.299Z,69.15
2022-12-17T09:46:28.313Z,68.70
2022-12-17T09:47:28.241Z,69.32
2022-12-17T09:48:32.357Z,70.02
2022-12-17T09:49:29.206Z,67.49
2022-12-17T09:50:28.241Z,69.01
2022-12-17T09:51:28.164Z,67.64
2022-12-17T09:52:28.153Z,68.92
2022-12-17T09:53:28.154Z,67.82
2022-12-17T09:54:28.157Z,70.13
2022-12-17T09:55:28.131Z,68.66
2022-12-17T09:56:28.088Z,67.95
2022-12-17T09:57:28.077Z,66.18
2022-12-17T09:58:28.056Z,68.85
2022-12-17T09:59:28.033Z,67.92
2022-12-17T10:00:28.052Z,69.72
2022-12-17T10:01:28.062Z,69.09
2022-12-17T10:02:28.142Z,69.15
2022-12-17T10:03:28.021Z,69.60
2022-12-17T10:04:27.942Z,69.71
2022-12-17T10:05:27.938Z,67.84
2022-12-17T10:06:27.948Z,68.02
2022-12-17T10:07:27.896Z,69.18
2022-12-17T10:08:27.876Z,69.04
2022-12-17T10:09:27.858Z,69.85
2022-12-17T10:10:27.848Z,68.78
2022-12-17T10:11:32.686Z,68.51
2022-12-17T10:12:29.823Z,67.96
2022-12-17T10:13:27.801Z,67.72
2022-12-17T10:14:27.790Z,68.67
2022-12-17T10:15:27.794Z,69.19
2022-12-17T10:16:27.773Z,69.49
2022-12-17T10:17:27.742Z,70.85
2022-12-17T10:18:27.727Z,70.77
2022-12-17T10:19:27.690Z,70.91
2022-12-17T10:20:27.680Z,70.78
2022-12-17T10:21:27.686Z,70.69
2022-12-17T10:22:27.642Z,70.83
2022-12-17T10:23:27.623Z,70.63
2022-12-17T10:24:27.603Z,71.77
2022-12-17T10:25:27.603Z,71.01
2022-12-17T10:26:27.611Z,71.01
2022-12-17T10:27:27.569Z,71.19
2022-12-17T10:28:27.570Z,70.76
2022-12-17T10:29:27.588Z,70.73
2022-12-17T10:30:27.509Z,70.22
2022-12-17T10:31:27.657Z,70.36
2022-12-17T10:32:27.492Z,70.51
2022-12-17T10:33:27.460Z,70.45
2022-12-17T10:34:27.446Z,70.23
2022-12-17T10:35:27.430Z,69.15
2022-12-17T10:36:27.459Z,67.60
2022-12-17T10:37:27.396Z,66.95
2022-12-17T10:38:27.412Z,67.84
2022-12-17T10:39:27.426Z,66.19
2022-12-17T10:40:27.365Z,69.05
2022-12-17T10:41:27.365Z,69.08
2022-12-17T10:42:32.898Z,69.17
2022-12-17T10:43:29.315Z,67.73
2022-12-17T10:44:27.285Z,67.23
2022-12-17T10:45:27.252Z,67.01
2022-12-17T10:46:27.348Z,67.76
2022-12-17T10:47:27.212Z,67.43
2022-12-17T10:48:27.203Z,66.73
2022-12-17T10:49:27.177Z,67.65
2022-12-17T10:50:27.259Z,67.82
2022-12-17T10:51:27.194Z,67.98
2022-12-17T10:52:27.168Z,67.63
2022-12-17T10:53:27.109Z,67.19
2022-12-17T10:54:27.110Z,68.15
2022-12-17T10:55:27.072Z,67.86
2022-12-17T10:56:27.116Z,68.12
2022-12-17T10:57:27.068Z,67.75
2022-12-17T10:58:27.066Z,68.66
2022-12-17T10:59:27.032Z,66.84
2022-12-17T11:00:27.002Z,66.50
2022-12-17T11:01:27.099Z,67.46
2022-12-17T11:02:27.153Z,67.91
2022-12-17T11:03:26.953Z,67.01
2022-12-17T11:04:26.909Z,66.84
2022-12-17T11:05:26.909Z,70.71
2022-12-17T11:06:26.926Z,72.25
2022-12-17T11:07:26.876Z,66.18
2022-12-17T11:08:26.839Z,65.62
2022-12-17T11:09:26.841Z,67.09
2022-12-17T11:10:26.806Z,68.93
2022-12-17T11:11:27.877Z,68.26
2022-12-17T11:12:30.515Z,68.64
2022-12-17T11:13:27.759Z,68.57
2022-12-17T11:14:26.746Z,68.90
2022-12-17T11:15:26.734Z,68.49
2022-12-17T11:16:26.801Z,67.72
2022-12-17T11:17:26.696Z,67.01
2022-12-17T11:18:26.671Z,68.22
2022-12-17T11:19:26.653Z,68.95
2022-12-17T11:20:26.636Z,68.65
2022-12-17T11:21:26.672Z,69.70
2022-12-17T11:22:26.594Z,68.64
2022-12-17T11:23:26.579Z,68.09
2022-12-17T11:24:26.578Z,68.25
2022-12-17T11:25:26.585Z,67.91
2022-12-17T11:26:26.562Z,68.20
2022-12-17T11:27:28.370Z,69.02
2022-12-17T11:28:26.503Z,68.16
2022-12-17T11:29:31.342Z,68.83
2022-12-17T11:30:40.850Z,66.81
2022-12-17T11:31:27.579Z,68.80
2022-12-17T11:32:26.438Z,67.26
2022-12-17T11:33:26.408Z,66.32
2022-12-17T11:34:26.401Z,67.60
2022-12-17T11:35:26.378Z,67.02
2022-12-17T11:36:32.543Z,67.28
2022-12-17T11:37:28.358Z,66.29
2022-12-17T11:38:26.328Z,68.31
2022-12-17T11:39:26.314Z,66.49
2022-12-17T11:40:26.296Z,66.82
2022-12-17T11:41:27.113Z,65.74
2022-12-17T11:42:26.294Z,65.95
2022-12-17T11:43:26.260Z,66.26
2022-12-17T11:44:26.368Z,66.20
2022-12-17T11:45:26.211Z,67.63
2022-12-17T11:46:26.322Z,67.14
2022-12-17T11:47:26.211Z,68.03
2022-12-17T11:48:26.202Z,67.33
2022-12-17T11:49:26.155Z,66.76
2022-12-17T11:50:26.147Z,66.38
2022-12-17T11:51:26.112Z,67.02
2022-12-17T11:52:26.165Z,65.95
2022-12-17T11:53:28.166Z,66.78
2022-12-17T11:54:27.059Z,67.84
2022-12-17T11:55:26.046Z,67.81
2022-12-17T11:56:26.034Z,65.87
2022-12-17T11:57:26.067Z,67.08
2022-12-17T11:58:26.004Z,67.43
2022-12-17T11:59:25.977Z,66.54
2022-12-17T12:00:25.976Z,66.38
2022-12-17T12:01:26.003Z,66.73
2022-12-17T12:02:25.976Z,66.41
2022-12-17T12:03:26.078Z,66.53
2022-12-17T12:04:25.926Z,66.82
2022-12-17T12:05:25.894Z,66.06
2022-12-17T12:06:25.868Z,66.95
2022-12-17T12:07:25.875Z,67.27
2022-12-17T12:08:25.823Z,66.15
2022-12-17T12:09:25.819Z,66.90
2022-12-17T12:10:25.815Z,66.28
2022-12-17T12:11:31.262Z,67.42
2022-12-17T12:12:27.783Z,65.99
2022-12-17T12:13:25.754Z,66.40
2022-12-17T12:14:25.729Z,65.96
2022-12-17T12:15:25.719Z,67.08
2022-12-17T12:16:25.775Z,65.94
2022-12-17T12:17:25.723Z,67.11
2022-12-17T12:18:25.669Z,65.79
2022-12-17T12:19:25.644Z,67.25
2022-12-17T12:20:25.631Z,67.20
2022-12-17T12:21:25.609Z,65.22
2022-12-17T12:22:30.463Z,66.56
2022-12-17T12:23:27.596Z,66.56
2022-12-17T12:24:25.563Z,67.06
2022-12-17T12:25:25.552Z,68.49
2022-12-17T12:26:25.533Z,66.06
2022-12-17T12:27:25.537Z,65.99
2022-12-17T12:28:25.503Z,67.08
2022-12-17T12:29:25.473Z,65.92
2022-12-17T12:30:25.497Z,67.37
2022-12-17T12:31:25.515Z,68.45
2022-12-17T12:32:25.440Z,66.64
2022-12-17T12:33:25.414Z,67.64
2022-12-17T12:34:25.387Z,67.30
2022-12-17T12:35:25.365Z,67.31
2022-12-17T12:36:25.344Z,67.15
2022-12-17T12:37:25.355Z,67.43
2022-12-17T12:38:25.304Z,66.91
2022-12-17T12:39:25.308Z,68.66
2022-12-17T12:40:25.293Z,67.22
2022-12-17T12:41:25.259Z,68.15
2022-12-17T12:42:25.278Z,66.94
2022-12-17T12:43:25.228Z,66.96
2022-12-17T12:44:25.211Z,66.60
2022-12-17T12:45:25.281Z,66.40
2022-12-17T12:46:25.247Z,67.88
2022-12-17T12:47:25.188Z,67.93
2022-12-17T12:48:25.143Z,67.13
2022-12-17T12:49:25.162Z,66.43
2022-12-17T12:50:25.103Z,67.54
2022-12-17T12:51:27.204Z,68.24
2022-12-17T12:52:26.118Z,68.54
2022-12-17T12:53:56.932Z,66.23